Time;durP1;ratioP1;P1;durP2;ratioP2;P2;SDS_P1;SDS_P2;PMS_P1;PMS_P2;Temp;Humidity;BMP_temperature;BMP_pressure;BME280_temperature;BME280_humidity;BME280_pressure;Samples;Min_cycle;Max_cycle;Signal;HPM_P1;HPM_P2
2021/01/31 00:00:32;;;;;;;27.98;13.93;;;;;;;-2.77;79.67;99879.19;1783286;80;21164;-88
2021/01/31 00:03:01;;;;;;;23.85;12.05;;;;;;;-2.72;79.62;99881.67;1782377;80;21168;-88
2021/01/31 00:05:34;;;;;;;24.30;12.03;;;;;;;-2.69;79.54;99876.69;1729997;80;21176;-89
2021/01/31 00:10:56;;;;;;;90.65;36.05;;;;;;;-2.64;79.31;99871.84;1733110;81;29168;-90
2021/01/31 00:13:30;;;;;;;134.37;48.65;;;;;;;-2.66;79.31;99885.91;1736390;81;21104;-88
2021/01/31 00:15:57;;;;;;;115.00;45.80;;;;;;;-2.62;79.30;99880.16;1732999;82;22053;-90
2021/01/31 00:18:28;;;;;;;107.40;46.30;;;;;;;-2.56;79.37;99883.52;1736055;82;21121;-88
2021/01/31 00:20:58;;;;;;;174.27;69.32;;;;;;;-2.51;79.35;99881.25;1736085;82;21168;-89
2021/01/31 00:23:29;;;;;;;108.15;45.98;;;;;;;-2.46;79.30;99883.31;1715237;82;21089;-89
2021/01/31 00:25:58;;;;;;;61.08;29.00;;;;;;;-2.43;79.23;99877.05;1735823;82;21117;-89
2021/01/31 00:28:28;;;;;;;41.00;19.95;;;;;;;-2.40;79.26;99878.53;1736144;82;22837;-89
2021/01/31 00:30:58;;;;;;;33.80;16.45;;;;;;;-2.37;79.26;99878.70;1736231;82;21167;-89
2021/01/31 00:33:28;;;;;;;29.10;15.38;;;;;;;-2.34;79.20;99880.61;1735892;81;21092;-89
2021/01/31 00:35:58;;;;;;;22.07;11.40;;;;;;;-2.30;79.29;99871.37;1735660;82;21145;-89
2021/01/31 00:38:29;;;;;;;20.50;11.25;;;;;;;-2.23;79.38;99869.67;1736074;82;21165;-88
2021/01/31 00:40:57;;;;;;;17.30;9.43;;;;;;;-2.18;79.25;99879.84;1736047;82;21958;-89
2021/01/31 00:43:30;;;;;;;16.75;9.10;;;;;;;-2.17;79.22;99872.21;1736045;82;21165;-89
2021/01/31 00:45:57;;;;;;;17.05;8.35;;;;;;;-2.13;79.17;99869.42;1735474;82;21172;-88
2021/01/31 00:48:26;;;;;;;16.35;8.23;;;;;;;-2.12;79.11;99862.58;1735455;82;21152;-90
2021/01/31 00:51:02;;;;;;;15.43;7.70;;;;;;;-2.08;79.06;99869.31;1735922;82;21618;-87
2021/01/31 00:53:29;;;;;;;14.97;7.53;;;;;;;-2.06;79.08;99869.42;1732785;82;21156;-88
2021/01/31 00:56:04;;;;;;;15.50;7.80;;;;;;;-2.03;79.05;99873.05;1734565;82;21900;-88
2021/01/31 00:58:31;;;;;;;15.23;8.43;;;;;;;-2.01;78.98;99876.63;1736016;82;21214;-88
2021/01/31 01:00:59;;;;;;;18.82;7.85;;;;;;;-1.98;79.06;99875.51;1735844;82;21192;-89
2021/01/31 01:03:26;;;;;;;17.32;7.35;;;;;;;-1.93;79.01;99869.73;1735936;82;21061;-88
2021/01/31 01:05:55;;;;;;;14.18;7.28;;;;;;;-1.90;79.04;99877.26;1735953;82;21913;-89
2021/01/31 01:08:22;;;;;;;14.75;7.75;;;;;;;-1.83;79.22;99861.77;1735866;82;21143;-88
2021/01/31 01:10:50;;;;;;;15.80;8.28;;;;;;;-1.77;79.18;99867.28;1725501;82;21108;-89
2021/01/31 01:13:17;;;;;;;16.85;7.22;;;;;;;-1.73;79.11;99864.49;1723832;83;21666;-89
2021/01/31 01:15:44;;;;;;;14.43;7.12;;;;;;;-1.68;79.27;99860.09;1723382;82;21156;-88
2021/01/31 01:18:11;;;;;;;11.75;5.78;;;;;;;-1.62;79.17;99854.00;1723328;83;22170;-88
2021/01/31 01:20:38;;;;;;;16.17;7.60;;;;;;;-1.55;79.16;99846.64;1723042;83;21192;-88
2021/01/31 01:23:05;;;;;;;9.33;5.25;;;;;;;-1.57;78.88;99840.09;1723076;82;21653;-87
2021/01/31 01:25:33;;;;;;;10.58;4.90;;;;;;;-1.63;78.58;99839.74;1722841;83;21689;-88
2021/01/31 01:28:00;;;;;;;8.28;4.37;;;;;;;-1.75;78.31;99832.14;1723014;83;21144;-88
2021/01/31 01:30:29;;;;;;;6.50;4.30;;;;;;;-1.87;78.19;99825.87;1723180;82;21809;-88
2021/01/31 01:32:56;;;;;;;11.00;4.15;;;;;;;-1.98;78.04;99838.12;1723072;82;21583;-88
2021/01/31 01:35:23;;;;;;;5.40;3.55;;;;;;;-2.08;78.07;99843.91;1723191;82;21136;-88
2021/01/31 01:37:51;;;;;;;6.25;3.55;;;;;;;-2.17;78.20;99851.59;1723078;83;21184;-88
2021/01/31 01:40:29;;;;;;;5.87;3.12;;;;;;;-2.23;78.23;99850.34;1723120;83;21140;-87
2021/01/31 01:42:56;;;;;;;6.05;3.72;;;;;;;-2.23;78.40;99852.92;1723007;82;21918;-88
2021/01/31 01:45:23;;;;;;;7.22;3.58;;;;;;;-2.19;78.54;99854.47;1722922;83;21179;-88
2021/01/31 01:47:51;;;;;;;11.25;3.95;;;;;;;-2.14;78.64;99854.73;1723164;83;21161;-88
2021/01/31 01:50:24;;;;;;;7.92;3.92;;;;;;;-2.09;78.69;99857.20;1723159;82;21157;-87
2021/01/31 01:52:52;;;;;;;6.05;3.17;;;;;;;-2.00;78.75;99853.90;1723013;82;21654;-86
2021/01/31 01:55:32;;;;;;;8.98;3.47;;;;;;;-1.96;78.70;99842.96;1697046;83;21906;-88
2021/01/31 01:58:12;;;;;;;7.17;3.40;;;;;;;-1.88;78.76;99848.58;1722150;83;21168;-88
2021/01/31 02:00:42;;;;;;;6.78;4.03;;;;;;;-1.80;78.70;99846.08;1722965;82;21148;-88
2021/01/31 02:03:14;;;;;;;7.60;3.58;;;;;;;-1.76;78.61;99844.16;1695042;83;21176;-86
2021/01/31 02:05:43;;;;;;;7.35;4.05;;;;;;;-1.70;78.59;99841.46;1709876;83;21117;-87
2021/01/31 02:08:10;;;;;;;5.87;3.40;;;;;;;-1.65;78.49;99834.48;1722442;82;21884;-86
2021/01/31 02:10:37;;;;;;;6.80;3.45;;;;;;;-1.61;78.40;99833.86;1722393;82;21144;-87
2021/01/31 02:13:05;;;;;;;6.42;3.67;;;;;;;-1.57;78.31;99823.31;1722898;82;21172;-87
2021/01/31 02:15:32;;;;;;;6.08;3.80;;;;;;;-1.55;78.21;99828.16;1722883;83;21136;-87
2021/01/31 02:18:13;;;;;;;9.13;4.65;;;;;;;-1.55;77.99;99823.41;1723050;82;21172;-87
2021/01/31 02:21:03;;;;;;;6.58;4.37;;;;;;;-1.62;77.79;99832.47;1723015;83;21964;-88
2021/01/31 02:23:51;;;;;;;7.90;4.67;;;;;;;-1.72;77.54;99831.45;1722993;83;21189;-88
2021/01/31 02:26:32;;;;;;;9.55;4.62;;;;;;;-1.86;77.34;99828.95;1720706;83;21207;-88
2021/01/31 02:29:42;;;;;;;9.73;5.72;;;;;;;-2.01;77.36;99832.80;1720734;83;21240;-86
2021/01/31 02:32:33;;;;;;;12.45;5.20;;;;;;;-2.11;77.37;99839.47;1722978;83;21614;-87
2021/01/31 02:35:10;;;;;;;11.33;5.65;;;;;;;-2.25;77.49;99839.02;1723156;82;21855;-87
2021/01/31 02:37:59;;;;;;;12.47;5.33;;;;;;;-2.36;77.62;99830.24;1723106;82;21622;-89
2021/01/31 02:40:30;;;;;;;10.90;4.78;;;;;;;-2.42;77.66;99836.69;1723264;83;21152;-88
2021/01/31 02:43:11;;;;;;;9.95;5.17;;;;;;;-2.51;77.75;99833.58;1721545;83;21227;-87
2021/01/31 02:45:47;;;;;;;8.68;5.25;;;;;;;-2.56;77.91;99834.16;1723169;82;21121;-86
2021/01/31 02:48:40;;;;;;;12.58;5.40;;;;;;;-2.62;78.03;99838.05;1722956;83;21862;-86
2021/01/31 02:51:13;;;;;;;8.68;5.12;;;;;;;-2.66;78.18;99837.38;1722973;82;21257;-87
2021/01/31 02:53:57;;;;;;;7.95;4.62;;;;;;;-2.69;78.34;99841.92;1722945;82;21125;-86
2021/01/31 02:56:29;;;;;;;11.78;5.58;;;;;;;-2.68;78.54;99837.64;1722482;83;21216;-87
2021/01/31 02:59:04;;;;;;;9.33;5.33;;;;;;;-2.63;78.65;99837.17;1719336;82;21449;-84
2021/01/31 03:01:36;;;;;;;10.48;6.25;;;;;;;-2.62;78.62;99839.34;1723000;82;21835;-88
2021/01/31 03:04:15;;;;;;;12.13;6.00;;;;;;;-2.62;78.67;99832.50;1722906;82;21148;-87
2021/01/31 03:06:47;;;;;;;8.58;5.28;;;;;;;-2.61;78.70;99835.58;1722865;83;21171;-86
2021/01/31 03:09:37;;;;;;;12.53;5.87;;;;;;;-2.62;78.68;99836.36;1722979;82;21219;-86
2021/01/31 03:12:15;;;;;;;12.25;5.58;;;;;;;-2.64;78.67;99843.52;1741071;82;21625;-87
2021/01/31 03:14:45;;;;;;;10.43;5.58;;;;;;;-2.68;78.69;99845.00;1740748;82;21707;-86
2021/01/31 03:17:40;;;;;;;12.05;6.00;;;;;;;-2.70;78.72;99845.68;1740273;82;21187;-85
2021/01/31 03:20:18;;;;;;;10.38;5.62;;;;;;;-2.73;78.79;99838.66;1740048;81;21148;-86
2021/01/31 03:22:56;;;;;;;9.28;5.85;;;;;;;-2.75;78.83;99848.86;1740480;82;21147;-85
2021/01/31 03:25:37;;;;;;;10.58;6.20;;;;;;;-2.76;78.96;99853.53;1721647;81;21207;-88
2021/01/31 03:28:04;;;;;;;8.93;5.58;;;;;;;-2.73;79.13;99857.98;1740609;81;21909;-87
2021/01/31 03:30:31;;;;;;;12.60;6.30;;;;;;;-2.69;79.26;99844.90;1740588;82;21129;-86
2021/01/31 03:33:04;;;;;;;12.15;6.12;;;;;;;-2.65;79.29;99846.87;1740714;82;21188;-88
2021/01/31 03:35:43;;;;;;;9.50;5.62;;;;;;;-2.65;79.29;99841.31;1739673;82;21151;-88
2021/01/31 03:38:28;;;;;;;8.35;5.35;;;;;;;-2.67;79.22;99833.00;1740792;82;21184;-87
2021/01/31 03:41:00;;;;;;;9.43;6.00;;;;;;;-2.67;79.26;99835.58;1740196;81;21844;-87
2021/01/31 03:43:27;;;;;;;10.55;6.42;;;;;;;-2.69;79.27;99830.73;1740883;82;21305;-87
2021/01/31 03:46:15;;;;;;;9.08;5.35;;;;;;;-2.73;79.26;99832.22;1740807;82;21239;-88
2021/01/31 03:48:53;;;;;;;8.08;5.35;;;;;;;-2.76;79.37;99840.66;1761678;81;21175;-88
2021/01/31 03:51:20;;;;;;;11.50;5.75;;;;;;;-2.81;79.37;99840.76;1761298;81;21175;-87
2021/01/31 03:53:47;;;;;;;7.35;4.67;;;;;;;-2.86;79.48;99840.85;1761649;81;21902;-89
2021/01/31 03:56:18;;;;;;;9.50;5.45;;;;;;;-2.89;79.56;99848.78;1761728;81;21658;-89
2021/01/31 03:58:45;;;;;;;8.18;5.28;;;;;;;-2.90;79.63;99849.59;1761359;81;21171;-87
2021/01/31 04:01:12;;;;;;;11.15;5.45;;;;;;;-2.95;79.67;99846.70;1761448;81;21250;-87
2021/01/31 04:03:50;;;;;;;11.12;5.40;;;;;;;-2.99;79.69;99848.59;1761550;81;21171;-86
2021/01/31 04:06:21;;;;;;;8.20;4.95;;;;;;;-3.01;79.82;99847.20;1761563;81;21899;-87
2021/01/31 04:08:53;;;;;;;9.15;5.45;;;;;;;-3.02;79.96;99848.38;1761477;81;21252;-87
2021/01/31 04:11:39;;;;;;;11.22;6.08;;;;;;;-3.05;80.05;99848.20;1755571;81;21230;-87
2021/01/31 04:14:20;;;;;;;8.33;5.95;;;;;;;-3.03;80.28;99849.20;1753027;82;21153;-88
2021/01/31 04:16:49;;;;;;;9.08;5.28;;;;;;;-3.01;80.26;99850.18;1727434;83;21192;-88
2021/01/31 04:19:17;;;;;;;7.75;5.17;;;;;;;-3.02;80.32;99849.30;1727440;82;22650;-87
2021/01/31 04:21:44;;;;;;;9.25;5.47;;;;;;;-3.05;80.33;99847.80;1727350;83;21215;-88
2021/01/31 04:24:12;;;;;;;10.65;5.62;;;;;;;-3.06;80.40;99839.97;1727333;83;21408;-86
2021/01/31 04:26:39;;;;;;;11.88;5.65;;;;;;;-3.07;80.47;99839.50;1727120;82;21149;-89
2021/01/31 04:29:06;;;;;;;12.10;5.58;;;;;;;-3.11;80.49;99842.27;1727171;83;21145;-89
2021/01/31 04:31:34;;;;;;;10.05;5.60;;;;;;;-3.11;80.62;99841.39;1704756;83;21893;-89
2021/01/31 04:34:01;;;;;;;10.58;5.60;;;;;;;-3.10;80.68;99840.17;1726910;82;21678;-88
2021/01/31 04:36:29;;;;;;;7.33;4.65;;;;;;;-3.09;80.71;99839.39;1727275;82;21148;-88
2021/01/31 04:38:56;;;;;;;9.40;5.92;;;;;;;-3.09;80.77;99841.97;1704439;83;21633;-89
2021/01/31 04:41:26;;;;;;;13.50;5.60;;;;;;;-3.11;80.76;99843.55;1727225;82;21202;-88
2021/01/31 04:43:53;;;;;;;10.23;5.40;;;;;;;-3.11;80.85;99837.12;1726663;83;21911;-87
2021/01/31 04:46:22;;;;;;;12.05;5.78;;;;;;;-3.10;80.94;99841.86;1727065;82;21235;-87
2021/01/31 04:49:00;;;;;;;8.43;4.90;;;;;;;-3.10;80.96;99838.88;1726925;82;21559;-87
2021/01/31 04:52:02;;;;;;;9.58;5.42;;;;;;;-3.09;81.07;99845.83;1726152;82;21089;-88
2021/01/31 04:55:05;;;;;;;11.30;5.35;;;;;;;-3.08;81.25;99841.16;1724419;83;21666;-88
2021/01/31 04:57:40;;;;;;;10.58;5.92;;;;;;;-3.07;81.20;99849.39;1725872;83;21911;-86
2021/01/31 05:00:15;;;;;;;7.53;5.20;;;;;;;-3.04;81.40;99847.03;1725247;81;21363;-87
2021/01/31 05:02:44;;;;;;;7.37;4.75;;;;;;;-2.97;81.60;99849.58;1726020;81;21175;-87
2021/01/31 05:05:23;;;;;;;10.78;5.72;;;;;;;-2.94;81.56;99858.39;1725891;83;21204;-88
2021/01/31 05:07:59;;;;;;;8.30;5.08;;;;;;;-2.94;81.47;99861.38;1719651;83;21161;-87
2021/01/31 05:10:26;;;;;;;6.65;4.87;;;;;;;-2.95;81.45;99864.72;1726164;82;21892;-87
2021/01/31 05:13:26;;;;;;;8.78;5.30;;;;;;;-2.96;81.40;99864.25;1703323;83;21140;-87
2021/01/31 05:16:14;;;;;;;9.10;5.65;;;;;;;-2.96;81.42;99869.40;1725880;82;21200;-87
2021/01/31 05:18:50;;;;;;;11.95;5.97;;;;;;;-2.98;81.49;99873.56;1725936;83;21180;-87
2021/01/31 05:21:21;;;;;;;8.40;5.17;;;;;;;-2.97;81.53;99876.20;1725504;82;21156;-89
2021/01/31 05:24:04;;;;;;;9.55;5.22;;;;;;;-2.96;81.52;99879.70;1725447;82;22133;-87
2021/01/31 05:26:44;;;;;;;8.08;5.05;;;;;;;-2.97;81.56;99885.63;1725344;83;21161;-87
2021/01/31 05:29:19;;;;;;;9.28;4.78;;;;;;;-2.95;81.71;99886.24;1725493;83;21192;-87
2021/01/31 05:32:12;;;;;;;8.45;4.72;;;;;;;-2.91;81.86;99883.44;1725380;83;21199;-87
2021/01/31 05:34:56;;;;;;;6.22;4.62;;;;;;;-2.82;81.92;99887.89;1872537;76;28376;-87
2021/01/31 05:37:28;;;;;;;6.90;4.08;;;;;;;-2.80;82.11;99887.59;1857211;77;21130;-88
2021/01/31 05:40:01;;;;;;;7.20;4.47;;;;;;;-2.63;82.35;99892.56;1857031;77;22764;-89
2021/01/31 05:42:35;;;;;;;6.55;4.17;;;;;;;-2.46;82.59;99896.20;1857322;76;21114;-88
2021/01/31 05:45:11;;;;;;;6.17;4.03;;;;;;;-2.27;82.68;99892.17;1857137;76;21135;-88
2021/01/31 05:47:43;;;;;;;8.38;4.47;;;;;;;-2.11;82.65;99896.19;1857344;77;21186;-87
2021/01/31 05:50:27;;;;;;;8.85;4.50;;;;;;;-1.99;82.59;99890.89;1826568;77;21174;-87
2021/01/31 05:52:55;;;;;;;7.40;4.33;;;;;;;-1.86;82.56;99896.39;1856791;77;21865;-88
2021/01/31 05:55:29;;;;;;;5.80;4.03;;;;;;;-1.73;82.51;99895.05;1857283;77;21182;-88
2021/01/31 05:58:19;;;;;;;6.72;4.20;;;;;;;-1.62;82.46;99891.82;1857001;77;21616;-88
2021/01/31 06:00:48;;;;;;;7.47;3.98;;;;;;;-1.48;82.47;99893.91;1857246;77;21197;-86
2021/01/31 06:03:21;;;;;;;9.28;4.53;;;;;;;-1.35;82.34;99899.03;1857185;77;21193;-87
2021/01/31 06:05:48;;;;;;;7.70;4.92;;;;;;;-1.27;82.27;99898.19;1857443;77;22030;-87
2021/01/31 06:08:29;;;;;;;5.55;4.25;;;;;;;-1.19;82.21;99901.67;1857284;76;21612;-87
2021/01/31 06:11:04;;;;;;;8.95;5.60;;;;;;;-1.09;82.08;99901.84;1857231;77;21178;-86
2021/01/31 06:13:31;;;;;;;7.80;4.85;;;;;;;-1.03;81.93;99907.75;1856393;77;21131;-89
2021/01/31 06:16:00;;;;;;;8.83;4.47;;;;;;;-0.97;81.91;99908.51;1857720;77;21162;-86
2021/01/31 06:18:35;;;;;;;8.45;5.00;;;;;;;-0.92;81.78;99906.67;1857966;77;22052;-88
2021/01/31 06:21:15;;;;;;;9.55;4.15;;;;;;;-0.84;81.71;99914.45;1854065;77;21138;-86
2021/01/31 06:23:45;;;;;;;9.05;4.78;;;;;;;-0.80;81.56;99909.05;1857534;77;21159;-80
2021/01/31 06:26:24;;;;;;;8.28;3.98;;;;;;;-0.75;81.49;99912.80;1857390;77;21170;-85
2021/01/31 06:28:56;;;;;;;6.20;3.90;;;;;;;-0.71;81.43;99913.45;1854035;77;21154;-85
2021/01/31 06:31:38;;;;;;;8.90;4.20;;;;;;;-0.68;81.29;99920.06;1857471;77;21783;-84
2021/01/31 06:34:05;;;;;;;8.15;4.53;;;;;;;-0.65;81.22;99922.83;1856863;77;21146;-85
2021/01/31 06:36:59;;;;;;;6.70;4.15;;;;;;;-0.61;81.23;99920.90;1857646;77;21091;-85
2021/01/31 06:39:49;;;;;;;8.60;4.75;;;;;;;-0.52;81.25;99922.24;1857314;77;29856;-84
2021/01/31 06:42:54;;;;;;;7.03;4.58;;;;;;;-0.44;81.14;99927.42;1844564;77;21107;-85
2021/01/31 06:45:54;;;;;;;6.78;4.58;;;;;;;-0.38;80.98;99928.16;1856189;77;22891;-84
2021/01/31 06:48:46;;;;;;;9.73;4.62;;;;;;;-0.36;80.86;99932.61;1856431;77;21605;-85
2021/01/31 06:52:07;;;;;;;9.20;4.65;;;;;;;-0.33;80.73;99932.78;1856744;77;21151;-85
2021/01/31 06:55:18;;;;;;;8.20;4.50;;;;;;;-0.28;80.67;99930.44;1856848;77;21119;-84
2021/01/31 06:58:16;;;;;;;8.00;4.72;;;;;;;-0.27;80.52;99926.64;1856900;77;21122;-82
2021/01/31 07:01:22;;;;;;;8.40;4.60;;;;;;;-0.23;80.38;99923.41;1808690;77;21229;-85
2021/01/31 07:04:16;;;;;;;7.58;4.28;;;;;;;-0.20;80.24;99926.59;1856571;77;21219;-84
2021/01/31 07:07:07;;;;;;;11.73;4.80;;;;;;;-0.18;80.19;99929.27;1855611;77;21269;-85
2021/01/31 07:10:10;;;;;;;7.75;4.45;;;;;;;-0.17;80.07;99934.91;1856691;77;21032;-85
2021/01/31 07:13:03;;;;;;;6.80;4.50;;;;;;;-0.16;79.95;99936.30;1856612;77;21043;-85
2021/01/31 07:16:01;;;;;;;7.55;4.42;;;;;;;-0.15;79.82;99943.27;1856837;77;21866;-84
2021/01/31 07:18:31;;;;;;;7.62;4.35;;;;;;;-0.16;79.67;99941.88;1856842;77;21115;-84
2021/01/31 07:20:59;;;;;;;7.60;4.70;;;;;;;-0.19;79.47;99942.58;1857032;77;21131;-84
2021/01/31 07:23:33;;;;;;;5.85;3.75;;;;;;;-0.19;79.49;99952.92;1856642;77;21206;-84
2021/01/31 07:26:16;;;;;;;6.25;3.90;;;;;;;-0.13;79.61;99948.49;1856614;77;21150;-85
2021/01/31 07:28:43;;;;;;;5.28;3.95;;;;;;;-0.09;79.52;99950.05;1856506;77;21813;-81
2021/01/31 07:31:17;;;;;;;7.92;3.80;;;;;;;-0.02;79.48;99952.55;1856258;77;21588;-81
2021/01/31 07:34:08;;;;;;;11.12;6.58;;;;;;;0.03;79.44;99956.29;1856471;77;21636;-87
2021/01/31 07:36:42;;;;;;;11.60;6.65;;;;;;;0.06;79.21;99962.05;1857211;77;21051;-87
2021/01/31 07:39:13;;;;;;;11.95;6.30;;;;;;;0.07;79.08;99962.11;1856923;77;21614;-87
2021/01/31 07:41:51;;;;;;;10.78;5.95;;;;;;;0.10;79.01;99969.17;1857024;77;21190;-87
2021/01/31 07:44:20;;;;;;;8.40;5.78;;;;;;;0.13;78.96;99963.76;1855128;77;21162;-88
2021/01/31 07:46:47;;;;;;;12.35;7.50;;;;;;;0.15;78.86;99963.44;1857036;76;21546;-89
2021/01/31 07:49:14;;;;;;;12.85;7.50;;;;;;;0.18;78.73;99968.75;1856582;77;21127;-85
2021/01/31 07:51:50;;;;;;;11.05;6.87;;;;;;;0.21;78.70;99974.90;1856382;76;21139;-85
2021/01/31 07:54:26;;;;;;;12.37;7.17;;;;;;;0.24;78.62;99970.78;1856369;77;21883;-86
2021/01/31 07:57:17;;;;;;;13.40;7.20;;;;;;;0.28;78.53;99978.30;1856716;77;21172;-86
2021/01/31 07:59:45;;;;;;;8.03;5.80;;;;;;;0.33;78.43;99976.86;1856607;77;21098;-83
2021/01/31 08:02:14;;;;;;;12.55;6.28;;;;;;;0.34;78.27;99974.36;1853167;77;21142;-84
2021/01/31 08:04:45;;;;;;;10.35;5.95;;;;;;;0.34;78.15;99974.36;1799559;77;21520;-84
2021/01/31 08:07:12;;;;;;;9.90;6.25;;;;;;;0.35;78.04;99974.83;1856896;77;21872;-85
2021/01/31 08:09:44;;;;;;;11.88;7.35;;;;;;;0.36;78.00;99983.09;1856666;77;21148;-85
2021/01/31 08:12:14;;;;;;;15.13;7.72;;;;;;;0.39;77.99;99982.36;1856578;77;21170;-84
2021/01/31 08:15:31;;;;;;;19.52;10.32;;;;;;;0.43;77.90;99984.30;1856512;77;21123;-85
2021/01/31 08:18:04;;;;;;;17.42;9.90;;;;;;;0.46;77.90;99987.06;1856676;77;21166;-86
2021/01/31 08:20:41;;;;;;;22.20;10.72;;;;;;;0.53;77.89;99990.46;1856645;77;21146;-85
2021/01/31 08:23:44;;;;;;;20.32;11.83;;;;;;;0.62;77.84;99991.74;1856560;77;21135;-84
2021/01/31 08:26:11;;;;;;;21.95;11.63;;;;;;;0.69;77.72;99989.96;1856741;77;21620;-85
2021/01/31 08:28:38;;;;;;;24.20;13.10;;;;;;;0.76;77.45;99989.48;1856573;77;21107;-84
2021/01/31 08:31:11;;;;;;;40.98;19.52;;;;;;;0.77;77.29;99995.16;1799138;77;21111;-88
2021/01/31 08:33:41;;;;;;;22.90;12.65;;;;;;;0.80;77.26;99998.30;1856725;77;21883;-88
2021/01/31 08:36:25;;;;;;;12.33;6.58;;;;;;;0.84;77.24;100001.11;1856983;77;21099;-88
2021/01/31 08:38:54;;;;;;;12.28;6.65;;;;;;;0.90;77.22;99998.86;1856970;77;21118;-87
2021/01/31 08:41:33;;;;;;;14.43;7.85;;;;;;;0.97;77.10;100007.41;1855810;77;22396;-87
2021/01/31 08:44:15;;;;;;;13.08;7.72;;;;;;;1.04;76.90;100007.74;1856781;77;21143;-87
2021/01/31 08:47:01;;;;;;;14.38;8.88;;;;;;;1.06;76.70;100016.48;1856793;77;22225;-88
2021/01/31 08:49:28;;;;;;;32.48;17.07;;;;;;;1.09;76.61;100017.91;1856814;77;21203;-87
2021/01/31 08:52:13;;;;;;;24.37;12.33;;;;;;;1.10;76.51;100026.19;1856884;77;21127;-88
2021/01/31 08:54:40;;;;;;;51.50;29.25;;;;;;;1.06;76.26;100022.55;1856689;77;21127;-86
2021/01/31 08:57:14;;;;;;;52.85;29.55;;;;;;;0.99;76.05;100024.33;1856896;77;21506;-86
2021/01/31 08:59:48;;;;;;;27.70;15.38;;;;;;;1.01;76.23;100033.48;1851146;77;22873;-86
2021/01/31 09:02:20;;;;;;;23.45;14.38;;;;;;;1.01;76.08;100034.38;1842908;77;21138;-89
2021/01/31 09:05:12;;;;;;;20.50;12.80;;;;;;;0.99;75.94;100038.59;1843029;77;21104;-88
2021/01/31 09:07:44;;;;;;;16.50;11.60;;;;;;;1.02;75.87;100040.05;1843040;77;21126;-89
2021/01/31 09:10:46;;;;;;;32.40;22.02;;;;;;;1.06;75.80;100036.80;1842782;77;21599;-85
2021/01/31 09:13:30;;;;;;;17.50;10.58;;;;;;;1.13;75.82;100030.25;1842683;77;21880;-87
2021/01/31 09:16:24;;;;;;;16.90;10.68;;;;;;;1.27;75.75;100040.01;1843006;77;21208;-86
2021/01/31 09:19:22;;;;;;;15.10;9.35;;;;;;;1.39;75.60;100043.23;1843064;77;21131;-87
2021/01/31 09:21:52;;;;;;;18.02;13.10;;;;;;;1.52;75.53;100049.52;1842485;77;21215;-87
2021/01/31 09:24:19;;;;;;;22.67;17.10;;;;;;;1.64;75.30;100049.64;1834341;77;21198;-88
2021/01/31 09:26:56;;;;;;;20.27;14.05;;;;;;;1.74;75.21;100057.92;1825906;78;21144;-88
2021/01/31 09:29:26;;;;;;;13.62;9.80;;;;;;;1.80;74.75;100056.03;1826167;78;21147;-87
2021/01/31 09:32:00;;;;;;;14.90;10.10;;;;;;;1.82;74.55;100054.44;1825948;78;21161;-87
2021/01/31 09:34:27;;;;;;;;;;;;;;;1.82;74.36;100062.22;1825906;78;21174;-88
2021/01/31 09:37:13;;;;;;;13.35;8.98;;;;;;;1.84;74.08;100058.38;1818312;78;20234;-88
2021/01/31 09:39:40;;;;;;;14.30;7.85;;;;;;;1.85;74.04;100061.47;1817422;78;23031;-87
2021/01/31 09:42:08;;;;;;;15.35;8.50;;;;;;;1.86;73.91;100060.63;1793112;78;21139;-88
2021/01/31 09:44:36;;;;;;;14.10;8.40;;;;;;;1.88;73.85;100052.55;1818378;77;21041;-88
2021/01/31 09:47:05;;;;;;;17.70;9.90;;;;;;;1.89;73.76;100053.89;1818289;78;21569;-88
2021/01/31 09:49:32;;;;;;;18.42;11.10;;;;;;;1.97;73.84;100053.38;1818144;78;21108;-87
2021/01/31 09:52:07;;;;;;;21.68;11.08;;;;;;;2.00;73.64;100048.34;1818347;78;21822;-87
2021/01/31 09:54:35;;;;;;;20.50;11.48;;;;;;;2.00;73.39;100045.33;1817833;78;21111;-89
2021/01/31 09:57:09;;;;;;;20.45;11.73;;;;;;;2.03;73.46;100045.91;1818487;78;21091;-87
2021/01/31 09:59:36;;;;;;;21.50;11.57;;;;;;;2.06;73.24;100050.80;1817552;78;21112;-87
2021/01/31 10:02:21;;;;;;;19.57;12.53;;;;;;;2.08;73.16;100041.41;1818425;78;21514;-84
2021/01/31 10:04:57;;;;;;;19.42;12.78;;;;;;;2.14;73.40;100040.39;1818456;78;22856;-88
2021/01/31 10:07:39;;;;;;;19.10;12.20;;;;;;;2.24;73.25;100040.83;1818435;78;21131;-88
2021/01/31 10:10:31;;;;;;;16.45;11.15;;;;;;;2.26;72.98;100036.59;1818047;78;21172;-87
2021/01/31 10:13:23;;;;;;;19.75;11.08;;;;;;;2.30;72.92;100037.22;1818236;78;21116;-88
2021/01/31 10:15:59;;;;;;;18.37;11.22;;;;;;;2.34;72.80;100032.63;1818420;77;21614;-88
2021/01/31 10:18:34;;;;;;;18.12;10.55;;;;;;;2.44;72.79;100036.16;1818504;78;21935;-88
2021/01/31 10:21:30;;;;;;;18.70;11.35;;;;;;;2.56;72.76;100037.53;1818452;78;21116;-87
2021/01/31 10:24:19;;;;;;;14.83;9.53;;;;;;;2.63;72.55;100039.59;1818580;78;21139;-87
2021/01/31 10:26:46;;;;;;;17.73;11.12;;;;;;;2.68;72.35;100033.79;1818637;77;21261;-88
2021/01/31 10:29:24;;;;;;;15.15;10.30;;;;;;;2.72;72.21;100037.00;1818493;78;21542;-87
2021/01/31 10:32:25;;;;;;;14.00;8.98;;;;;;;2.84;72.10;100033.16;1889423;76;22680;-89
2021/01/31 10:34:56;;;;;;;13.50;9.13;;;;;;;2.81;71.96;100030.00;1822937;76;21215;-88
2021/01/31 10:37:36;;;;;;;16.50;9.23;;;;;;;2.93;71.95;100036.17;1823014;78;21887;-88
2021/01/31 10:40:05;;;;;;;12.58;8.28;;;;;;;2.99;71.79;100027.33;1822845;78;21613;-88
2021/01/31 10:42:32;;;;;;;14.58;8.03;;;;;;;3.03;71.57;100030.95;1822835;78;21152;-88
2021/01/31 10:45:22;;;;;;;14.38;8.15;;;;;;;3.05;71.42;100029.31;1822854;78;21183;-88
2021/01/31 10:48:03;;;;;;;12.80;7.97;;;;;;;3.13;71.34;100021.42;1817466;79;22650;-88
2021/01/31 10:50:30;;;;;;;11.73;7.65;;;;;;;3.16;71.13;100028.48;1750721;81;21140;-87
2021/01/31 10:52:57;;;;;;;11.63;7.92;;;;;;;3.21;71.05;100023.95;1750770;82;21966;-87
2021/01/31 10:55:24;;;;;;;14.60;8.63;;;;;;;3.18;70.84;100025.11;1750608;82;21124;-87
2021/01/31 10:57:51;;;;;;;11.68;7.65;;;;;;;3.24;70.91;100030.56;1750730;81;21190;-87
2021/01/31 11:00:19;;;;;;;13.62;9.05;;;;;;;3.25;70.63;100031.06;1750592;82;21205;-87
2021/01/31 11:02:46;;;;;;;11.88;7.87;;;;;;;3.29;70.72;100035.98;1751003;82;21125;-87
2021/01/31 11:05:14;;;;;;;13.62;7.97;;;;;;;3.38;70.70;100035.47;1750757;82;21970;-87
2021/01/31 11:07:41;;;;;;;12.20;8.30;;;;;;;3.41;70.40;100027.80;1750580;82;22898;-87
2021/01/31 11:10:11;;;;;;;13.35;7.95;;;;;;;3.46;70.50;100032.38;1750746;82;21578;-87
2021/01/31 11:12:38;;;;;;;13.30;8.15;;;;;;;3.56;70.23;100028.44;1750518;81;21129;-88
2021/01/31 11:15:07;;;;;;;12.55;8.60;;;;;;;3.57;69.87;100026.32;1750748;82;21156;-88
2021/01/31 11:17:34;;;;;;;11.15;8.18;;;;;;;3.54;69.85;100024.00;1750872;82;21878;-87
2021/01/31 11:20:02;;;;;;;11.25;7.78;;;;;;;3.54;69.77;100021.40;1750662;82;21192;-87
2021/01/31 11:22:29;;;;;;;12.10;7.58;;;;;;;3.57;69.90;100018.94;1750728;82;21234;-87
2021/01/31 11:24:56;;;;;;;11.97;7.53;;;;;;;3.70;70.02;100012.98;1750815;82;21149;-87
2021/01/31 11:27:23;;;;;;;11.05;7.70;;;;;;;3.74;69.56;100008.80;1750701;81;21183;-87
2021/01/31 11:29:51;;;;;;;13.35;7.87;;;;;;;3.76;69.57;100014.06;1750651;82;21894;-88
2021/01/31 11:32:18;;;;;;;14.05;9.15;;;;;;;3.78;69.47;100005.91;1750565;82;21132;-87
2021/01/31 11:34:45;;;;;;;11.40;7.90;;;;;;;3.78;69.36;100009.38;1750668;81;21124;-88
2021/01/31 11:37:12;;;;;;;12.88;8.43;;;;;;;3.78;69.36;99998.97;1723711;82;21204;-88
2021/01/31 11:39:40;;;;;;;11.88;8.48;;;;;;;3.79;69.21;99991.66;1750811;82;21187;-88
2021/01/31 11:42:07;;;;;;;16.20;8.90;;;;;;;3.86;69.23;99987.13;1750618;81;21802;-88
2021/01/31 11:44:34;;;;;;;12.05;7.97;;;;;;;3.95;69.35;99979.23;1750592;82;21141;-88
2021/01/31 11:47:03;;;;;;;12.40;7.50;;;;;;;4.02;69.15;99976.05;1750418;81;21607;-88
2021/01/31 11:49:30;;;;;;;10.48;7.03;;;;;;;4.03;69.08;99973.89;1750430;82;21212;-87
2021/01/31 11:51:57;;;;;;;11.50;7.20;;;;;;;4.03;68.98;99973.47;1750659;80;21128;-87
2021/01/31 11:54:25;;;;;;;12.65;8.33;;;;;;;3.93;68.74;99972.66;1750576;82;21960;-87
2021/01/31 11:56:53;;;;;;;12.75;7.97;;;;;;;3.85;68.68;99971.06;1750464;80;21566;-87
2021/01/31 11:59:20;;;;;;;10.63;6.92;;;;;;;3.67;68.36;99968.60;1750053;82;21163;-88
2021/01/31 12:01:47;;;;;;;8.78;7.03;;;;;;;3.44;68.14;99969.41;1750123;82;21161;-88
2021/01/31 12:04:14;;;;;;;13.08;7.95;;;;;;;3.17;68.04;99963.93;1749968;82;21591;-88
2021/01/31 12:06:42;;;;;;;13.05;7.03;;;;;;;2.88;68.08;99968.37;1749971;82;21884;-87
2021/01/31 12:09:09;;;;;;;13.83;7.40;;;;;;;2.67;68.26;99970.05;1722919;82;21696;-88